Time;durP1;ratioP1;P1;durP2;ratioP2;P2;SDS_P1;SDS_P2;PMS_P1;PMS_P2;Temp;Humidity;BMP_temperature;BMP_pressure;BME280_temperature;BME280_humidity;BME280_pressure;Samples;Min_cycle;Max_cycle;Signal;HPM_P1;HPM_P2
2024/01/28 00:01:35;;;;;;;6.57;2.53;;;;;;;;;;5097091;28;20204;-79
2024/01/28 00:04:02;;;;;;;2.83;1.92;;;;;;;;;;5097304;28;20639;-79
2024/01/28 00:06:31;;;;;;;3.92;2.88;;;;;;;;;;5097003;28;20303;-80
2024/01/28 00:08:59;;;;;;;3.58;1.95;;;;;;;;;;5097350;28;20207;-79
2024/01/28 00:11:26;;;;;;;3.65;2.45;;;;;;;;;;5096632;28;20205;-78
2024/01/28 00:13:53;;;;;;;3.63;2.65;;;;;;;;;;5097000;28;20201;-80
2024/01/28 00:16:21;;;;;;;2.50;2.20;;;;;;;;;;5096477;28;20687;-80
2024/01/28 00:18:49;;;;;;;5.93;2.95;;;;;;;;;;5105626;28;20200;-80
2024/01/28 00:21:16;;;;;;;4.80;3.70;;;;;;;;;;5117266;28;20203;-79
2024/01/28 00:23:45;;;;;;;7.93;3.72;;;;;;;;;;5108245;28;20206;-80
2024/01/28 00:26:13;;;;;;;5.05;2.60;;;;;;;;;;5101117;28;20246;-79
2024/01/28 00:28:40;;;;;;;3.28;2.95;;;;;;;;;;5101761;28;20203;-79
2024/01/28 00:31:10;;;;;;;2.63;2.03;;;;;;;;;;5076588;28;20211;-80
2024/01/28 00:33:37;;;;;;;4.75;2.58;;;;;;;;;;5090553;28;20212;-79
2024/01/28 00:36:06;;;;;;;3.08;2.28;;;;;;;;;;5107093;28;20630;-80
2024/01/28 00:38:34;;;;;;;2.03;1.83;;;;;;;;;;5110513;28;20204;-79
2024/01/28 00:41:03;;;;;;;3.45;1.92;;;;;;;;;;5105798;28;20291;-80
2024/01/28 00:43:30;;;;;;;3.50;2.33;;;;;;;;;;5102474;28;20210;-78
2024/01/28 00:45:58;;;;;;;2.45;2.00;;;;;;;;;;5098035;28;20220;-79
2024/01/28 00:48:25;;;;;;;2.25;2.08;;;;;;;;;;5104388;28;20249;-79
2024/01/28 00:50:53;;;;;;;4.18;2.40;;;;;;;;;;5105392;28;20640;-79
2024/01/28 00:53:21;;;;;;;2.70;2.42;;;;;;;;;;5108014;28;20266;-80
2024/01/28 00:55:49;;;;;;;3.25;2.53;;;;;;;;;;5108600;28;20224;-79
2024/01/28 00:58:18;;;;;;;3.35;3.00;;;;;;;;;;5096382;28;20210;-80
2024/01/28 01:00:45;;;;;;;8.80;3.60;;;;;;;;;;5096062;28;20197;-79
2024/01/28 01:03:13;;;;;;;2.92;2.63;;;;;;;;;;5096388;28;20208;-80
2024/01/28 01:05:41;;;;;;;6.18;3.33;;;;;;;;;;5096237;28;20752;-79
2024/01/28 01:08:09;;;;;;;4.60;3.30;;;;;;;;;;5096525;28;20360;-79
2024/01/28 01:10:36;;;;;;;7.28;3.45;;;;;;;;;;5095241;28;20200;-80
2024/01/28 01:13:04;;;;;;;3.03;2.20;;;;;;;;;;5098221;28;20291;-79
2024/01/28 01:15:33;;;;;;;3.38;2.53;;;;;;;;;;5115349;28;20698;-80
2024/01/28 01:18:01;;;;;;;2.53;1.92;;;;;;;;;;5114673;28;20203;-78
2024/01/28 01:20:28;;;;;;;2.15;1.90;;;;;;;;;;5095714;28;20290;-79
2024/01/28 01:22:56;;;;;;;2.70;2.00;;;;;;;;;;5095922;28;20200;-79
2024/01/28 01:25:23;;;;;;;2.97;1.90;;;;;;;;;;5094973;28;20220;-78
2024/01/28 01:27:52;;;;;;;3.05;2.53;;;;;;;;;;5104035;28;20203;-80
2024/01/28 01:30:20;;;;;;;2.80;2.40;;;;;;;;;;5112060;28;20643;-79
2024/01/28 01:32:49;;;;;;;3.60;2.10;;;;;;;;;;5103397;28;20709;-78
2024/01/28 01:35:16;;;;;;;4.45;2.55;;;;;;;;;;5111295;28;20224;-80
2024/01/28 01:37:44;;;;;;;2.08;1.88;;;;;;;;;;5094701;28;20228;-81
2024/01/28 01:40:14;;;;;;;2.40;2.20;;;;;;;;;;5095734;28;20200;-80
2024/01/28 01:42:42;;;;;;;3.22;2.85;;;;;;;;;;5095626;28;20193;-78
2024/01/28 01:45:10;;;;;;;2.55;2.22;;;;;;;;;;5115212;28;20318;-80
2024/01/28 01:47:38;;;;;;;1.98;1.88;;;;;;;;;;5107777;28;20648;-79
2024/01/28 01:50:09;;;;;;;3.30;1.85;;;;;;;;;;5115745;28;20211;-80
2024/01/28 01:52:36;;;;;;;2.38;2.17;;;;;;;;;;5099999;28;20228;-80
2024/01/28 01:55:05;;;;;;;5.47;3.08;;;;;;;;;;5095227;28;20207;-80
2024/01/28 01:57:32;;;;;;;5.63;3.28;;;;;;;;;;5095178;28;20227;-80
2024/01/28 02:00:00;;;;;;;4.22;2.97;;;;;;;;;;5095305;28;20615;-79
2024/01/28 02:02:27;;;;;;;4.85;2.78;;;;;;;;;;5094902;28;20200;-81
2024/01/28 02:04:56;;;;;;;4.22;2.65;;;;;;;;;;5095185;28;20211;-80
2024/01/28 02:07:26;;;;;;;2.55;2.28;;;;;;;;;;5095120;28;20197;-79
2024/01/28 02:09:54;;;;;;;3.85;2.60;;;;;;;;;;5094819;28;20274;-79
2024/01/28 02:12:21;;;;;;;3.95;3.33;;;;;;;;;;5095635;28;20206;-80
2024/01/28 02:14:49;;;;;;;3.10;2.80;;;;;;;;;;5095059;28;20698;-79
2024/01/28 02:17:16;;;;;;;8.40;3.63;;;;;;;;;;5095080;28;20224;-80
2024/01/28 02:19:44;;;;;;;3.00;2.78;;;;;;;;;;5095401;28;20223;-78
2024/01/28 02:22:13;;;;;;;4.47;3.72;;;;;;;;;;5096366;28;20243;-80
2024/01/28 02:24:42;;;;;;;8.30;5.00;;;;;;;;;;5099041;28;20647;-80
2024/01/28 02:27:09;;;;;;;6.65;4.45;;;;;;;;;;5098870;28;20216;-80
2024/01/28 02:29:37;;;;;;;8.63;4.47;;;;;;;;;;5099028;28;20253;-79
2024/01/28 02:32:05;;;;;;;6.32;3.78;;;;;;;;;;5098700;28;20204;-79
2024/01/28 02:34:32;;;;;;;6.15;5.57;;;;;;;;;;5098504;28;20212;-80
2024/01/28 02:37:00;;;;;;;6.50;5.60;;;;;;;;;;5097928;28;20840;-80
2024/01/28 02:39:27;;;;;;;10.70;5.75;;;;;;;;;;5098497;28;20746;-79
2024/01/28 02:41:56;;;;;;;10.60;4.78;;;;;;;;;;5107594;28;20228;-80
2024/01/28 02:44:24;;;;;;;5.80;4.57;;;;;;;;;;5105440;28;20204;-81
2024/01/28 02:46:51;;;;;;;6.53;3.70;;;;;;;;;;5114817;28;20274;-80
2024/01/28 02:49:20;;;;;;;6.70;4.82;;;;;;;;;;5118048;28;20286;-79
2024/01/28 02:51:48;;;;;;;7.78;5.03;;;;;;;;;;5118578;28;20195;-81
2024/01/28 02:54:15;;;;;;;5.35;4.05;;;;;;;;;;5118351;28;20231;-79
2024/01/28 02:56:43;;;;;;;6.43;3.38;;;;;;;;;;5102053;28;20310;-79
2024/01/28 02:59:13;;;;;;;4.97;3.00;;;;;;;;;;5098064;28;20204;-78
2024/01/28 03:01:46;;;;;;;5.35;3.20;;;;;;;;;;5098376;28;20185;-79
2024/01/28 03:04:13;;;;;;;3.83;2.58;;;;;;;;;;5084630;28;20195;-80
2024/01/28 03:06:41;;;;;;;3.05;2.47;;;;;;;;;;5118709;28;20215;-80
2024/01/28 03:09:09;;;;;;;2.97;2.67;;;;;;;;;;5118359;28;20226;-78
2024/01/28 03:11:36;;;;;;;3.35;3.05;;;;;;;;;;5118645;28;20271;-79
2024/01/28 03:14:04;;;;;;;4.43;3.65;;;;;;;;;;5099789;28;20206;-79
2024/01/28 03:16:33;;;;;;;5.45;4.50;;;;;;;;;;5098140;28;20656;-79
2024/01/28 03:19:00;;;;;;;8.13;4.60;;;;;;;;;;5089694;28;20204;-81
2024/01/28 03:21:28;;;;;;;4.50;3.65;;;;;;;;;;5097960;28;20200;-78
2024/01/28 03:23:56;;;;;;;5.25;3.40;;;;;;;;;;5097625;28;20206;-80
2024/01/28 03:26:23;;;;;;;6.15;4.05;;;;;;;;;;5097890;28;20221;-80
2024/01/28 03:28:51;;;;;;;8.48;3.90;;;;;;;;;;5107419;28;20206;-78
2024/01/28 03:31:19;;;;;;;10.35;4.53;;;;;;;;;;5118484;28;20238;-80
2024/01/28 03:33:48;;;;;;;9.70;5.10;;;;;;;;;;5100641;28;20825;-80
2024/01/28 03:36:15;;;;;;;6.78;4.93;;;;;;;;;;5097955;28;20638;-79
2024/01/28 03:38:43;;;;;;;6.32;3.63;;;;;;;;;;5097787;28;20243;-79
2024/01/28 03:41:10;;;;;;;5.20;4.10;;;;;;;;;;5097621;28;20224;-79
2024/01/28 03:43:38;;;;;;;7.50;3.88;;;;;;;;;;5104782;28;20212;-79
2024/01/28 03:46:09;;;;;;;6.18;4.00;;;;;;;;;;5118083;28;20226;-79
2024/01/28 03:48:39;;;;;;;11.07;4.30;;;;;;;;;;5118711;28;20184;-80
2024/01/28 03:51:08;;;;;;;4.00;3.70;;;;;;;;;;5118450;28;20237;-80
2024/01/28 03:53:35;;;;;;;5.22;3.58;;;;;;;;;;5118591;28;20271;-79
2024/01/28 03:56:03;;;;;;;7.68;4.38;;;;;;;;;;5118238;28;20219;-78
2024/01/28 03:58:30;;;;;;;6.45;3.72;;;;;;;;;;5117866;28;20220;-79
2024/01/28 04:00:58;;;;;;;8.95;3.22;;;;;;;;;;5118212;28;20290;-79
2024/01/28 04:03:26;;;;;;;3.38;3.03;;;;;;;;;;5117852;28;20195;-79
2024/01/28 04:05:53;;;;;;;3.88;2.42;;;;;;;;;;5118157;28;20230;-78
2024/01/28 04:08:22;;;;;;;2.45;1.98;;;;;;;;;;5118303;28;20195;-80
2024/01/28 04:10:49;;;;;;;5.15;2.60;;;;;;;;;;5099934;28;20287;-78
2024/01/28 04:13:17;;;;;;;3.97;2.45;;;;;;;;;;5097648;28;20228;-80
2024/01/28 04:15:44;;;;;;;5.50;3.42;;;;;;;;;;5097771;28;20251;-78
2024/01/28 04:18:12;;;;;;;4.35;3.13;;;;;;;;;;5097715;28;20239;-79
2024/01/28 04:20:39;;;;;;;6.03;3.78;;;;;;;;;;5097577;28;20915;-80
2024/01/28 04:23:06;;;;;;;4.45;2.72;;;;;;;;;;5097280;28;20292;-80
2024/01/28 04:25:35;;;;;;;3.35;2.55;;;;;;;;;;5097238;28;20223;-80
2024/01/28 04:28:03;;;;;;;4.25;2.60;;;;;;;;;;5077867;28;20573;-80
2024/01/28 04:30:30;;;;;;;3.15;2.85;;;;;;;;;;5076245;28;20293;-80
2024/01/28 04:32:57;;;;;;;3.17;2.88;;;;;;;;;;5076485;28;20228;-79
2024/01/28 04:35:25;;;;;;;6.88;3.05;;;;;;;;;;5076483;28;20233;-79
2024/01/28 04:37:53;;;;;;;3.17;2.72;;;;;;;;;;5076550;28;20252;-79
2024/01/28 04:40:20;;;;;;;4.05;2.83;;;;;;;;;;5082142;28;20224;-80
2024/01/28 04:42:49;;;;;;;3.35;2.35;;;;;;;;;;5096390;28;20197;-79
2024/01/28 04:45:17;;;;;;;2.70;2.50;;;;;;;;;;5080209;28;20586;-78
2024/01/28 04:47:44;;;;;;;5.55;3.47;;;;;;;;;;5097404;28;20206;-80
2024/01/28 04:50:12;;;;;;;4.60;3.80;;;;;;;;;;5096853;28;20205;-77
2024/01/28 04:52:40;;;;;;;7.95;5.35;;;;;;;;;;5097035;28;20283;-80
2024/01/28 04:55:09;;;;;;;6.13;4.40;;;;;;;;;;5096640;28;20203;-80
2024/01/28 04:57:36;;;;;;;6.00;4.72;;;;;;;;;;5096552;28;20569;-79
2024/01/28 05:00:10;;;;;;;6.75;5.10;;;;;;;;;;5096791;28;20604;-78
2024/01/28 05:02:37;;;;;;;5.88;3.85;;;;;;;;;;5096965;28;20279;-80
2024/01/28 05:05:06;;;;;;;6.97;3.88;;;;;;;;;;5096895;28;20207;-80
2024/01/28 05:07:34;;;;;;;3.40;2.83;;;;;;;;;;5096607;28;20279;-80
2024/01/28 05:10:01;;;;;;;3.15;2.85;;;;;;;;;;5096690;28;20212;-80
2024/01/28 05:12:30;;;;;;;2.90;2.67;;;;;;;;;;5096847;28;20204;-79
2024/01/28 05:14:58;;;;;;;4.03;2.50;;;;;;;;;;5095436;28;20200;-80
2024/01/28 05:17:27;;;;;;;3.45;2.30;;;;;;;;;;5091143;28;20204;-79
2024/01/28 05:19:54;;;;;;;4.03;3.35;;;;;;;;;;5096478;28;20224;-79
2024/01/28 05:22:22;;;;;;;2.50;2.00;;;;;;;;;;5092196;28;20242;-80
2024/01/28 05:24:50;;;;;;;4.43;3.15;;;;;;;;;;5108675;28;20228;-79
2024/01/28 05:27:17;;;;;;;3.58;2.67;;;;;;;;;;5096836;28;20200;-78
2024/01/28 05:29:45;;;;;;;3.42;2.40;;;;;;;;;;5096409;28;20197;-79
2024/01/28 05:32:14;;;;;;;3.20;2.53;;;;;;;;;;5097313;28;20291;-78
2024/01/28 05:34:43;;;;;;;2.80;2.17;;;;;;;;;;5097057;28;20272;-80
2024/01/28 05:37:14;;;;;;;3.30;2.20;;;;;;;;;;5096060;28;20316;-80
2024/01/28 05:39:42;;;;;;;2.58;2.10;;;;;;;;;;5097387;28;20211;-80
2024/01/28 05:42:09;;;;;;;5.32;2.00;;;;;;;;;;5097076;28;20200;-80
2024/01/28 05:44:37;;;;;;;3.83;1.90;;;;;;;;;;5096213;28;20291;-79
2024/01/28 05:47:05;;;;;;;3.25;2.90;;;;;;;;;;5096522;28;20323;-80
2024/01/28 05:49:34;;;;;;;3.97;2.67;;;;;;;;;;5096859;28;20287;-79
2024/01/28 05:52:02;;;;;;;3.47;3.13;;;;;;;;;;5096504;28;20298;-78
2024/01/28 05:54:30;;;;;;;2.35;2.13;;;;;;;;;;5095863;28;20196;-80
2024/01/28 05:56:57;;;;;;;3.08;2.33;;;;;;;;;;5098771;28;20651;-79
2024/01/28 05:59:25;;;;;;;2.42;2.22;;;;;;;;;;5100682;28;20216;-79
2024/01/28 06:01:53;;;;;;;3.00;2.42;;;;;;;;;;5100200;28;20196;-80
2024/01/28 06:04:21;;;;;;;2.65;2.45;;;;;;;;;;5100552;28;20231;-80
2024/01/28 06:06:49;;;;;;;2.33;2.13;;;;;;;;;;5100397;28;20220;-79
2024/01/28 06:09:18;;;;;;;3.90;2.78;;;;;;;;;;5099994;28;20203;-80
2024/01/28 06:11:45;;;;;;;6.20;2.70;;;;;;;;;;5101276;28;20254;-78
2024/01/28 06:14:13;;;;;;;5.50;3.05;;;;;;;;;;5099871;28;20200;-80
2024/01/28 06:16:40;;;;;;;4.60;2.90;;;;;;;;;;5100061;28;20219;-80
2024/01/28 06:19:08;;;;;;;5.32;2.97;;;;;;;;;;5100107;28;20227;-80
2024/01/28 06:21:35;;;;;;;2.95;2.20;;;;;;;;;;5099647;28;20255;-79
2024/01/28 06:24:02;;;;;;;5.05;2.17;;;;;;;;;;5100067;28;20196;-80
2024/01/28 06:26:35;;;;;;;5.13;3.10;;;;;;;;;;5099181;28;20725;-79
2024/01/28 06:29:03;;;;;;;3.13;2.70;;;;;;;;;;5099982;28;20208;-80
2024/01/28 06:31:30;;;;;;;3.13;2.85;;;;;;;;;;5098992;28;20200;-80
2024/01/28 06:33:58;;;;;;;6.50;3.28;;;;;;;;;;5099362;28;20204;-80
2024/01/28 06:36:25;;;;;;;6.13;4.15;;;;;;;;;;5099421;28;20234;-78
2024/01/28 06:38:54;;;;;;;5.30;3.70;;;;;;;;;;5100225;28;20288;-80
2024/01/28 06:41:22;;;;;;;4.00;3.42;;;;;;;;;;5120757;28;20210;-79
2024/01/28 06:43:52;;;;;;;4.43;3.97;;;;;;;;;;5119813;28;20207;-80
2024/01/28 06:46:19;;;;;;;7.65;3.88;;;;;;;;;;5119932;28;20226;-80
2024/01/28 06:48:47;;;;;;;14.27;4.80;;;;;;;;;;5119363;28;20200;-80
2024/01/28 06:51:14;;;;;;;3.00;2.58;;;;;;;;;;5099196;28;20287;-79
2024/01/28 06:53:42;;;;;;;10.55;4.30;;;;;;;;;;5098725;28;20200;-79
2024/01/28 06:56:09;;;;;;;7.28;3.83;;;;;;;;;;5098834;28;20607;-80
2024/01/28 06:58:37;;;;;;;5.95;4.45;;;;;;;;;;5099168;28;20206;-79
2024/01/28 07:01:05;;;;;;;7.13;4.43;;;;;;;;;;5099032;28;20750;-79
2024/01/28 07:03:33;;;;;;;6.93;4.63;;;;;;;;;;5098390;28;20208;-79
2024/01/28 07:06:00;;;;;;;6.18;3.63;;;;;;;;;;5097302;28;20774;-78
2024/01/28 07:08:28;;;;;;;4.75;4.07;;;;;;;;;;5077299;28;20204;-79
2024/01/28 07:10:56;;;;;;;3.38;3.08;;;;;;;;;;5078282;28;20196;-79
2024/01/28 07:13:24;;;;;;;3.58;3.00;;;;;;;;;;5078626;28;20246;-79
2024/01/28 07:15:51;;;;;;;4.35;3.80;;;;;;;;;;5078859;28;20221;-78
2024/01/28 07:18:21;;;;;;;3.78;3.17;;;;;;;;;;5078849;28;20575;-79
2024/01/28 07:20:49;;;;;;;6.63;3.58;;;;;;;;;;5078676;28;20288;-79
2024/01/28 07:23:16;;;;;;;8.82;4.05;;;;;;;;;;5078465;28;20223;-80
2024/01/28 07:25:44;;;;;;;5.75;4.35;;;;;;;;;;5077545;28;20225;-80
2024/01/28 07:28:11;;;;;;;5.20;3.45;;;;;;;;;;5078053;28;20201;-79
2024/01/28 07:30:38;;;;;;;4.88;4.03;;;;;;;;;;5078233;28;20193;-79
2024/01/28 07:33:08;;;;;;;6.82;4.95;;;;;;;;;;5077997;28;20573;-79
2024/01/28 07:35:37;;;;;;;5.50;4.38;;;;;;;;;;5078468;28;20765;-79
2024/01/28 07:38:05;;;;;;;3.22;2.92;;;;;;;;;;5077537;28;20568;-79
2024/01/28 07:40:32;;;;;;;4.35;3.92;;;;;;;;;;5092689;28;20224;-78
2024/01/28 07:42:59;;;;;;;4.60;4.07;;;;;;;;;;5098034;28;20456;-80
2024/01/28 07:45:27;;;;;;;4.05;3.55;;;;;;;;;;5098469;28;20762;-78
2024/01/28 07:47:54;;;;;;;5.05;4.18;;;;;;;;;;5098315;28;20293;-79
2024/01/28 07:50:22;;;;;;;4.10;3.63;;;;;;;;;;5098562;28;20295;-80
2024/01/28 07:52:51;;;;;;;3.95;3.50;;;;;;;;;;5098090;28;20210;-79
2024/01/28 07:55:18;;;;;;;7.10;4.10;;;;;;;;;;5097747;28;20223;-80
2024/01/28 07:57:46;;;;;;;5.78;4.57;;;;;;;;;;5097780;28;20253;-80
2024/01/28 08:00:15;;;;;;;4.68;3.60;;;;;;;;;;5097646;28;20236;-79
2024/01/28 08:02:43;;;;;;;3.85;3.55;;;;;;;;;;5098001;28;20207;-78
2024/01/28 08:05:10;;;;;;;5.50;4.25;;;;;;;;;;5097680;28;20224;-80
2024/01/28 08:07:38;;;;;;;7.47;5.50;;;;;;;;;;5097862;28;20204;-79
2024/01/28 08:10:08;;;;;;;6.53;4.40;;;;;;;;;;5097298;28;20259;-79
2024/01/28 08:12:35;;;;;;;6.28;5.40;;;;;;;;;;5097868;28;20347;-78
2024/01/28 08:15:03;;;;;;;4.72;4.20;;;;;;;;;;5097320;28;20204;-78
2024/01/28 08:17:30;;;;;;;8.07;5.25;;;;;;;;;;5097460;28;20204;-77
2024/01/28 08:19:58;;;;;;;6.03;5.30;;;;;;;;;;5096942;28;20230;-77
2024/01/28 08:22:25;;;;;;;6.75;4.75;;;;;;;;;;5096690;28;20663;-79
2024/01/28 08:24:53;;;;;;;7.85;5.07;;;;;;;;;;5097241;28;20200;-77
2024/01/28 08:27:22;;;;;;;5.28;4.18;;;;;;;;;;5097171;28;20258;-78
2024/01/28 08:29:50;;;;;;;6.75;3.72;;;;;;;;;;5097614;28;20200;-80
2024/01/28 08:32:17;;;;;;;6.75;3.65;;;;;;;;;;5097750;28;20292;-79
2024/01/28 08:34:46;;;;;;;4.60;3.33;;;;;;;;;;5097672;28;20581;-79
2024/01/28 08:37:13;;;;;;;10.57;3.78;;;;;;;;;;5097473;28;20647;-79
2024/01/28 08:39:42;;;;;;;6.72;3.08;;;;;;;;;;5097684;28;20262;-80
2024/01/28 08:42:09;;;;;;;5.18;2.33;;;;;;;;;;5097912;28;20573;-79
2024/01/28 08:44:38;;;;;;;3.75;1.95;;;;;;;;;;5097575;28;20200;-80
2024/01/28 08:47:05;;;;;;;6.90;2.13;;;;;;;;;;5097991;28;20246;-78
2024/01/28 08:49:33;;;;;;;12.60;4.55;;;;;;;;;;5097540;28;20196;-78
2024/01/28 08:52:00;;;;;;;3.85;2.10;;;;;;;;;;5097634;28;20196;-78
2024/01/28 08:54:30;;;;;;;2.72;1.77;;;;;;;;;;5098095;28;20196;-79
2024/01/28 08:56:57;;;;;;;4.25;1.80;;;;;;;;;;5097878;28;20588;-79
2024/01/28 08:59:25;;;;;;;6.05;2.22;;;;;;;;;;5097790;28;20208;-79
2024/01/28 09:01:55;;;;;;;2.58;1.83;;;;;;;;;;5097402;28;20230;-79
2024/01/28 09:04:22;;;;;;;6.07;2.50;;;;;;;;;;5098534;28;20260;-79
2024/01/28 09:06:50;;;;;;;4.35;1.90;;;;;;;;;;5096861;28;20221;-80
2024/01/28 09:09:17;;;;;;;2.72;2.15;;;;;;;;;;5097519;28;20694;-80
2024/01/28 09:11:45;;;;;;;5.18;2.40;;;;;;;;;;5097031;28;20203;-80
2024/01/28 09:14:12;;;;;;;3.67;2.08;;;;;;;;;;5099548;28;20299;-78
2024/01/28 09:16:39;;;;;;;5.40;2.63;;;;;;;;;;5106587;28;20256;-79
2024/01/28 09:19:08;;;;;;;2.38;2.03;;;;;;;;;;5104214;28;20260;-79
2024/01/28 09:21:36;;;;;;;5.55;2.20;;;;;;;;;;5118282;28;20776;-79
2024/01/28 09:24:03;;;;;;;4.00;1.90;;;;;;;;;;5103542;28;20239;-79
2024/01/28 09:26:31;;;;;;;5.47;1.92;;;;;;;;;;5110671;28;20686;-79
2024/01/28 09:28:58;;;;;;;3.33;2.08;;;;;;;;;;5112825;28;20257;-79
2024/01/28 09:31:26;;;;;;;4.47;2.55;;;;;;;;;;5097690;28;20263;-78
2024/01/28 09:33:53;;;;;;;3.38;2.58;;;;;;;;;;5102308;28;20267;-79
2024/01/28 09:36:22;;;;;;;3.30;2.20;;;;;;;;;;5097189;28;20235;-79
2024/01/28 09:38:49;;;;;;;2.30;1.98;;;;;;;;;;5120376;28;20272;-79
2024/01/28 09:41:23;;;;;;;6.03;2.00;;;;;;;;;;5104018;28;20310;-79
2024/01/28 09:43:50;;;;;;;3.78;2.20;;;;;;;;;;5096419;28;20666;-79
2024/01/28 09:46:18;;;;;;;3.38;2.03;;;;;;;;;;5098089;28;20315;-79
2024/01/28 09:48:47;;;;;;;2.47;1.98;;;;;;;;;;5105513;28;20295;-79
2024/01/28 09:51:15;;;;;;;6.78;2.95;;;;;;;;;;5105972;28;20224;-79
2024/01/28 09:53:44;;;;;;;3.53;2.17;;;;;;;;;;5105305;28;20291;-78
2024/01/28 09:56:13;;;;;;;3.00;2.08;;;;;;;;;;5105114;28;20288;-79
2024/01/28 09:58:42;;;;;;;3.95;2.20;;;;;;;;;;5104846;28;20204;-78
2024/01/28 10:01:12;;;;;;;4.65;3.00;;;;;;;;;;5103976;28;20239;-79
2024/01/28 10:03:39;;;;;;;6.55;2.38;;;;;;;;;;5104496;28;20200;-79
2024/01/28 10:06:07;;;;;;;4.28;2.40;;;;;;;;;;5102466;28;20307;-79
2024/01/28 10:08:35;;;;;;;4.45;2.65;;;;;;;;;;5091900;28;20274;-79
2024/01/28 10:11:04;;;;;;;2.42;1.80;;;;;;;;;;5102326;28;20283;-79
2024/01/28 10:13:32;;;;;;;3.33;2.28;;;;;;;;;;5091556;28;20276;-78
2024/01/28 10:16:00;;;;;;;3.88;2.30;;;;;;;;;;5104395;28;20646;-78
2024/01/28 10:18:28;;;;;;;9.60;2.70;;;;;;;;;;5105407;28;20726;-79
2024/01/28 10:20:55;;;;;;;6.10;2.00;;;;;;;;;;5104022;28;20220;-79
2024/01/28 10:23:23;;;;;;;4.18;2.33;;;;;;;;;;5091015;28;20292;-79
2024/01/28 10:25:50;;;;;;;8.43;3.33;;;;;;;;;;5109778;28;20490;-79
2024/01/28 10:28:20;;;;;;;3.63;2.20;;;;;;;;;;5101931;28;20630;-79
2024/01/28 10:30:50;;;;;;;4.00;2.30;;;;;;;;;;5112690;28;20215;-79
2024/01/28 10:33:17;;;;;;;5.88;2.33;;;;;;;;;;5117113;28;20654;-79
2024/01/28 10:35:45;;;;;;;5.45;2.75;;;;;;;;;;5100391;28;20311;-79
2024/01/28 10:38:19;;;;;;;5.43;2.20;;;;;;;;;;5087327;28;20295;-79
2024/01/28 10:40:47;;;;;;;5.28;3.03;;;;;;;;;;5103319;28;20224;-78
2024/01/28 10:43:18;;;;;;;3.60;2.67;;;;;;;;;;5103007;28;20201;-79
2024/01/28 10:45:48;;;;;;;5.40;2.40;;;;;;;;;;5104255;28;20287;-79
2024/01/28 10:48:19;;;;;;;4.97;2.53;;;;;;;;;;5089992;28;20267;-78
2024/01/28 10:50:48;;;;;;;4.30;2.70;;;;;;;;;;5099390;28;20224;-80
2024/01/28 10:53:16;;;;;;;3.67;2.33;;;;;;;;;;5091947;28;20255;-79
2024/01/28 10:55:44;;;;;;;6.93;3.10;;;;;;;;;;5107491;28;20312;-79
2024/01/28 10:58:12;;;;;;;5.82;2.85;;;;;;;;;;5106364;28;20290;-79
2024/01/28 11:00:41;;;;;;;5.80;3.03;;;;;;;;;;5106414;28;20626;-79
2024/01/28 11:03:10;;;;;;;3.25;2.50;;;;;;;;;;5103687;28;20303;-79
2024/01/28 11:05:38;;;;;;;3.40;2.42;;;;;;;;;;5101445;28;20295;-78
2024/01/28 11:08:06;;;;;;;3.25;2.60;;;;;;;;;;5097939;28;20643;-79
2024/01/28 11:10:35;;;;;;;4.15;2.78;;;;;;;;;;5107513;28;20254;-79
2024/01/28 11:13:05;;;;;;;4.82;2.72;;;;;;;;;;5096807;28;20268;-78
2024/01/28 11:15:33;;;;;;;3.40;2.35;;;;;;;;;;5100854;28;20291;-78
2024/01/28 11:18:03;;;;;;;3.47;2.67;;;;;;;;;;5107897;28;20235;-78
2024/01/28 11:20:32;;;;;;;7.40;3.20;;;;;;;;;;5097962;28;20223;-79
2024/01/28 11:23:00;;;;;;;5.30;2.70;;;;;;;;;;5098369;28;20227;-82
2024/01/28 11:25:29;;;;;;;3.58;2.58;;;;;;;;;;5097755;28;20303;-79
2024/01/28 11:28:00;;;;;;;5.55;2.60;;;;;;;;;;5097262;28;20232;-80
2024/01/28 11:30:28;;;;;;;4.05;3.42;;;;;;;;;;5098544;28;20184;-80
2024/01/28 11:33:09;;;;;;;5.20;2.65;;;;;;;;;;5098357;28;20634;-78
2024/01/28 11:35:37;;;;;;;3.55;2.58;;;;;;;;;;5113493;28;20231;-78
2024/01/28 11:38:07;;;;;;;3.97;3.55;;;;;;;;;;5115081;28;20573;-79
2024/01/28 11:40:37;;;;;;;4.05;2.60;;;;;;;;;;5099489;28;20568;-80
2024/01/28 11:43:07;;;;;;;2.40;2.17;;;;;;;;;;5099115;28;20314;-79
2024/01/28 11:45:36;;;;;;;3.70;3.03;;;;;;;;;;5098712;28;20227;-79
2024/01/28 11:48:10;;;;;;;3.38;2.33;;;;;;;;;;5100962;28;20209;-81
2024/01/28 11:50:38;;;;;;;3.65;2.10;;;;;;;;;;5103507;28;20200;-81
2024/01/28 11:53:06;;;;;;;3.10;2.33;;;;;;;;;;5089364;28;20233;-82
2024/01/28 11:55:33;;;;;;;3.50;2.45;;;;;;;;;;5078714;28;20231;-80
2024/01/28 11:58:01;;;;;;;3.10;2.00;;;;;;;;;;5090579;28;20208;-80
2024/01/28 12:00:29;;;;;;;6.45;2.95;;;;;;;;;;5097791;28;20210;-81
2024/01/28 12:02:56;;;;;;;4.53;2.33;;;;;;;;;;5107793;28;20223;-80
2024/01/28 12:05:25;;;;;;;2.78;2.10;;;;;;;;;;5105076;28;20224;-79
2024/01/28 12:07:54;;;;;;;5.63;2.47;;;;;;;;;;5106816;28;20207;-80
2024/01/28 12:10:22;;;;;;;2.90;2.60;;;;;;;;;;5100053;28;20711;-78
2024/01/28 12:12:50;;;;;;;4.18;2.10;;;;;;;;;;5115374;28;20195;-80
2024/01/28 12:15:17;;;;;;;3.60;2.42;;;;;;;;;;5103279;28;20227;-80
2024/01/28 12:17:47;;;;;;;2.83;2.17;;;;;;;;;;5111527;28;20723;-80
2024/01/28 12:20:22;;;;;;;3.78;2.67;;;;;;;;;;5117823;28;20199;-80
2024/01/28 12:22:51;;;;;;;3.42;2.40;;;;;;;;;;5117597;28;20668;-80
2024/01/28 12:25:24;;;;;;;5.57;3.03;;;;;;;;;;5119245;28;20223;-80
2024/01/28 12:27:52;;;;;;;2.70;2.38;;;;;;;;;;5111863;28;20223;-81
2024/01/28 12:30:20;;;;;;;4.30;2.70;;;;;;;;;;5099798;28;20682;-81
2024/01/28 12:32:49;;;;;;;2.95;2.50;;;;;;;;;;5099909;28;20206;-81
2024/01/28 12:35:17;;;;;;;2.38;2.00;;;;;;;;;;5099688;28;20260;-81
2024/01/28 12:37:44;;;;;;;4.28;2.10;;;;;;;;;;5099490;28;20655;-79
2024/01/28 12:40:13;;;;;;;2.70;1.92;;;;;;;;;;5098916;28;20195;-80
2024/01/28 12:42:41;;;;;;;4.57;2.30;;;;;;;;;;5099194;28;20310;-80
2024/01/28 12:45:10;;;;;;;3.03;2.40;;;;;;;;;;5110786;28;20359;-80
2024/01/28 12:47:37;;;;;;;4.80;2.85;;;;;;;;;;5112332;28;20299;-80
2024/01/28 12:50:06;;;;;;;2.78;2.00;;;;;;;;;;5099325;28;20204;-82
2024/01/28 12:52:34;;;;;;;2.50;2.20;;;;;;;;;;5099718;28;20635;-79
2024/01/28 12:55:02;;;;;;;2.70;2.50;;;;;;;;;;5080334;28;20204;-80
2024/01/28 12:57:31;;;;;;;4.10;2.30;;;;;;;;;;5085376;28;20204;-80
2024/01/28 12:59:59;;;;;;;3.67;2.15;;;;;;;;;;5099381;28;20211;-78
2024/01/28 13:02:28;;;;;;;4.60;2.28;;;;;;;;;;5099547;28;20647;-80
2024/01/28 13:04:56;;;;;;;2.08;1.80;;;;;;;;;;5098590;28;20208;-79
2024/01/28 13:07:24;;;;;;;3.05;1.98;;;;;;;;;;5099797;28;20200;-81
2024/01/28 13:09:51;;;;;;;2.67;2.00;;;;;;;;;;5098159;28;20681;-82
2024/01/28 13:12:19;;;;;;;4.88;2.20;;;;;;;;;;5102141;28;20214;-82
2024/01/28 13:14:47;;;;;;;4.93;2.72;;;;;;;;;;5111101;28;20612;-80
2024/01/28 13:17:15;;;;;;;3.30;1.70;;;;;;;;;;5099590;28;20214;-80
2024/01/28 13:19:42;;;;;;;3.45;2.40;;;;;;;;;;5115623;28;20246;-80
2024/01/28 13:22:10;;;;;;;3.10;2.72;;;;;;;;;;5115764;28;20204;-79
2024/01/28 13:24:38;;;;;;;3.15;1.92;;;;;;;;;;5106289;28;20246;-78
2024/01/28 13:27:06;;;;;;;2.95;2.08;;;;;;;;;;5099833;28;20220;-80
2024/01/28 13:29:35;;;;;;;1.80;1.65;;;;;;;;;;5098757;28;20208;-79
2024/01/28 13:32:04;;;;;;;2.67;1.88;;;;;;;;;;5101271;28;20594;-80
2024/01/28 13:34:34;;;;;;;1.92;1.67;;;;;;;;;;5119480;28;20199;-80
2024/01/28 13:37:02;;;;;;;2.42;1.67;;;;;;;;;;5109106;28;20318;-80
2024/01/28 13:39:29;;;;;;;3.15;2.08;;;;;;;;;;5093443;28;20200;-79
2024/01/28 13:41:57;;;;;;;7.38;2.20;;;;;;;;;;5087787;28;20211;-80
2024/01/28 13:44:24;;;;;;;1.92;1.70;;;;;;;;;;5098844;28;20247;-81
2024/01/28 13:46:52;;;;;;;2.15;1.90;;;;;;;;;;5098695;28;20729;-81
2024/01/28 13:49:20;;;;;;;3.72;2.03;;;;;;;;;;5098736;28;20200;-80
2024/01/28 13:51:48;;;;;;;7.03;2.55;;;;;;;;;;5098663;28;20207;-80
2024/01/28 13:54:15;;;;;;;4.30;1.80;;;;;;;;;;5102533;28;20710;-80
2024/01/28 13:56:43;;;;;;;4.15;2.10;;;;;;;;;;5111079;28;20223;-79
2024/01/28 13:59:10;;;;;;;3.10;1.83;;;;;;;;;;5105119;28;20705;-81
2024/01/28 14:01:38;;;;;;;3.28;1.90;;;;;;;;;;5094068;28;20273;-80
2024/01/28 14:04:06;;;;;;;4.72;2.92;;;;;;;;;;5097876;28;20323;-80
2024/01/28 14:06:34;;;;;;;3.67;2.10;;;;;;;;;;5099051;28;20284;-81
2024/01/28 14:09:02;;;;;;;2.42;2.10;;;;;;;;;;5099069;28;20611;-79
2024/01/28 14:11:29;;;;;;;2.22;1.80;;;;;;;;;;5098425;28;20227;-79
2024/01/28 14:13:57;;;;;;;2.78;2.20;;;;;;;;;;5108594;28;20207;-80
2024/01/28 14:16:24;;;;;;;3.55;2.05;;;;;;;;;;5114371;28;20628;-80
2024/01/28 14:18:52;;;;;;;3.38;2.15;;;;;;;;;;5102642;28;20210;-80
2024/01/28 14:21:20;;;;;;;1.88;1.70;;;;;;;;;;5102858;28;20216;-80
2024/01/28 14:23:48;;;;;;;2.28;1.83;;;;;;;;;;5102547;28;20236;-79
2024/01/28 14:26:16;;;;;;;1.95;1.67;;;;;;;;;;5094695;28;20598;-80
2024/01/28 14:28:43;;;;;;;3.55;2.47;;;;;;;;;;5103021;28;20207;-79
2024/01/28 14:31:11;;;;;;;3.65;2.20;;;;;;;;;;5102700;28;20206;-80
2024/01/28 14:33:38;;;;;;;1.58;1.48;;;;;;;;;;5101925;28;20210;-80
2024/01/28 14:36:06;;;;;;;3.17;2.05;;;;;;;;;;5102368;28;20699;-78
2024/01/28 14:38:34;;;;;;;2.13;1.55;;;;;;;;;;5102392;28;20260;-79
2024/01/28 14:41:03;;;;;;;2.05;1.58;;;;;;;;;;5102745;28;20201;-80
2024/01/28 14:43:31;;;;;;;2.22;1.80;;;;;;;;;;5102704;28;20273;-78
2024/01/28 14:45:59;;;;;;;2.95;1.83;;;;;;;;;;5102486;28;20608;-80
2024/01/28 14:48:27;;;;;;;3.00;1.80;;;;;;;;;;5102611;28;20600;-80